Eglin AFB, Florida
Current Conditions -  °F | °C
As of 8:29 AM on Sunday 23 Nov 2014 (Local Time) from KVPS Reporting Station
Overcast Overcast  
Wind Chill: 70°   Ceiling: 600
Heat Index: 70°   Visibility: 2.5mi
Dew Point: 70°   Wind: 12mph
Humidity: 100%   Direction: 150°SSE
Pressure: 29.82"   Gusts: NA
Location:  30.46°N, 86.55°W
Report Text: KVPS 231429Z 15010KT 2 1/2SM OVC006 21/21 A2982 RMK AO2A $
Loading
Personal Weather Stations






























Interactive Weather Map New forecast layout! Learn more

10-Day Weather Forecast

Advertisements
Track Severe Weather on mobile